createdAt,value
2017-08-28T00:01:18.785Z,21.50
2017-08-28T00:03:47.033Z,21.60
2017-08-28T00:06:15.316Z,21.70
2017-08-28T00:08:43.569Z,21.70
2017-08-28T00:11:11.800Z,21.60
2017-08-28T00:13:40.204Z,21.50
2017-08-28T00:16:08.463Z,21.50
2017-08-28T00:18:36.708Z,21.50
2017-08-28T00:21:05.298Z,21.70
2017-08-28T00:23:33.530Z,21.80
2017-08-28T00:26:01.777Z,21.80
2017-08-28T00:28:30.087Z,21.90
2017-08-28T00:30:58.331Z,22.00
2017-08-28T00:33:26.577Z,22.10
2017-08-28T00:35:54.857Z,22.10
2017-08-28T00:38:23.789Z,22.20
2017-08-28T00:40:52.029Z,22.30
2017-08-28T00:43:20.951Z,22.20
2017-08-28T00:45:49.203Z,22.20
2017-08-28T00:48:17.447Z,22.00
2017-08-28T00:50:45.716Z,21.80
2017-08-28T00:53:13.972Z,21.70
2017-08-28T00:55:42.217Z,21.60
2017-08-28T00:58:10.653Z,21.60
2017-08-28T01:00:38.925Z,21.60
2017-08-28T01:03:07.168Z,21.50
2017-08-28T01:05:35.458Z,21.50
2017-08-28T01:08:03.729Z,21.50
2017-08-28T01:10:31.984Z,21.40
2017-08-28T01:13:00.400Z,21.20
2017-08-28T01:15:28.643Z,21.20
2017-08-28T01:17:56.883Z,21.30
2017-08-28T01:20:25.341Z,21.20
2017-08-28T01:22:53.596Z,21.20
2017-08-28T01:25:21.836Z,21.20
2017-08-28T01:27:50.403Z,21.10
2017-08-28T01:30:18.652Z,21.00
2017-08-28T01:32:46.919Z,21.00
2017-08-28T01:35:15.466Z,21.00
2017-08-28T01:37:43.693Z,21.00
2017-08-28T01:40:11.951Z,20.90
2017-08-28T01:42:40.327Z,20.90
2017-08-28T01:45:08.881Z,20.60
2017-08-28T01:47:37.145Z,20.60
2017-08-28T01:50:05.467Z,20.70
2017-08-28T01:52:33.704Z,20.70
2017-08-28T01:55:01.957Z,20.70
2017-08-28T01:57:30.241Z,20.70
2017-08-28T01:59:58.497Z,20.70
2017-08-28T02:02:26.773Z,20.50
2017-08-28T02:04:55.039Z,20.40
2017-08-28T02:07:23.321Z,20.20
2017-08-28T02:09:51.564Z,20.10
2017-08-28T02:12:20.744Z,20.10
2017-08-28T02:14:49.244Z,20.10
2017-08-28T02:17:17.502Z,20.00
2017-08-28T02:19:45.805Z,19.90
2017-08-28T02:22:14.044Z,19.90
2017-08-28T02:24:42.290Z,20.00
2017-08-28T02:27:11.045Z,20.00
2017-08-28T02:29:39.284Z,20.00
2017-08-28T02:32:07.536Z,20.10
2017-08-28T02:34:36.013Z,20.10
2017-08-28T02:37:04.262Z,20.00
2017-08-28T02:39:32.508Z,19.90
2017-08-28T02:42:00.974Z,19.80
2017-08-28T02:44:29.219Z,19.70
2017-08-28T02:46:57.726Z,19.60
2017-08-28T02:49:26.009Z,19.70
2017-08-28T02:51:54.240Z,19.80
2017-08-28T02:54:22.492Z,19.80
2017-08-28T02:56:50.781Z,19.70
2017-08-28T02:59:19.024Z,19.60
2017-08-28T03:01:47.313Z,19.50
2017-08-28T03:04:15.566Z,19.60
2017-08-28T03:06:44.136Z,19.50
2017-08-28T03:09:12.377Z,19.40
2017-08-28T03:11:40.657Z,19.30
2017-08-28T03:14:08.900Z,19.30
2017-08-28T03:16:37.209Z,19.30
2017-08-28T03:19:05.576Z,19.30
2017-08-28T03:21:33.818Z,19.30
2017-08-28T03:24:02.050Z,19.20
2017-08-28T03:26:30.334Z,19.10
2017-08-28T03:28:58.571Z,19.00
2017-08-28T03:31:27.041Z,19.10
2017-08-28T03:33:55.465Z,19.10
2017-08-28T03:36:23.713Z,19.00
2017-08-28T03:38:51.965Z,19.00
2017-08-28T03:41:20.456Z,19.00
2017-08-28T03:43:48.937Z,19.00
2017-08-28T03:46:17.188Z,19.20
2017-08-28T03:48:45.703Z,19.50
2017-08-28T03:51:14.035Z,19.70
2017-08-28T03:53:42.639Z,19.90
2017-08-28T03:56:11.143Z,20.10
2017-08-28T03:58:39.394Z,20.30
2017-08-28T04:01:07.636Z,20.40
2017-08-28T04:03:35.937Z,20.40
2017-08-28T04:06:04.179Z,20.40
2017-08-28T04:08:32.432Z,20.50
2017-08-28T04:11:00.724Z,20.70
2017-08-28T04:13:29.160Z,20.80
2017-08-28T04:15:57.403Z,20.90
2017-08-28T04:18:26.125Z,20.90
2017-08-28T04:20:54.372Z,21.00
2017-08-28T04:23:22.618Z,21.00
2017-08-28T04:25:50.905Z,21.00
2017-08-28T04:28:19.162Z,21.10
2017-08-28T04:30:47.404Z,21.10
2017-08-28T04:33:15.892Z,21.20
2017-08-28T04:35:44.129Z,21.20
2017-08-28T04:38:13.501Z,21.20
2017-08-28T04:40:41.889Z,21.20
2017-08-28T04:43:10.124Z,21.20
2017-08-28T04:45:38.398Z,21.10
2017-08-28T04:48:06.677Z,21.10
2017-08-28T04:50:35.257Z,21.00
2017-08-28T04:53:03.502Z,21.00
2017-08-28T04:55:32.264Z,21.10
2017-08-28T04:58:00.721Z,21.10
2017-08-28T05:00:29.070Z,21.20
2017-08-28T05:02:57.352Z,21.20
2017-08-28T05:05:25.601Z,21.30
2017-08-28T05:07:53.876Z,21.30
2017-08-28T05:10:22.175Z,21.40
2017-08-28T05:12:50.439Z,21.40
2017-08-28T05:15:18.683Z,21.50
2017-08-28T05:17:47.124Z,21.50
2017-08-28T05:20:16.064Z,21.10
2017-08-28T05:22:44.309Z,20.90
2017-08-28T05:25:12.574Z,20.80
2017-08-28T05:27:40.827Z,20.90
2017-08-28T05:30:09.075Z,21.00
2017-08-28T05:32:37.361Z,21.10
2017-08-28T05:35:05.706Z,21.10
2017-08-28T05:37:33.951Z,21.10
2017-08-28T05:40:02.389Z,21.20
2017-08-28T05:42:30.624Z,21.40
2017-08-28T05:44:58.860Z,21.70
2017-08-28T05:47:28.158Z,22.00
2017-08-28T05:49:56.406Z,22.30
2017-08-28T05:52:24.666Z,22.60
2017-08-28T05:54:52.941Z,22.90
2017-08-28T05:57:21.238Z,23.00
2017-08-28T05:59:49.480Z,23.30
2017-08-28T06:02:17.782Z,23.60
2017-08-28T06:04:46.978Z,23.80
2017-08-28T06:07:15.363Z,24.00
2017-08-28T06:09:43.736Z,24.40
2017-08-28T06:12:12.204Z,24.60
2017-08-28T06:14:40.449Z,24.90
2017-08-28T06:17:08.726Z,25.20
2017-08-28T06:19:37.012Z,25.40
2017-08-28T06:22:05.253Z,25.50
2017-08-28T06:24:33.666Z,25.60
2017-08-28T06:27:01.911Z,25.60
2017-08-28T06:29:30.207Z,25.60
2017-08-28T06:31:58.616Z,25.50
2017-08-28T06:34:27.720Z,25.50
2017-08-28T06:36:55.991Z,25.60
2017-08-28T06:39:24.448Z,25.80
2017-08-28T06:41:52.678Z,25.90
2017-08-28T06:44:21.005Z,26.20
2017-08-28T06:46:49.297Z,26.50
2017-08-28T06:49:17.568Z,26.80
2017-08-28T06:51:45.843Z,26.90
2017-08-28T06:54:14.275Z,26.90
2017-08-28T06:56:42.586Z,26.90
2017-08-28T06:59:10.835Z,27.00
2017-08-28T07:01:39.101Z,27.10
2017-08-28T07:04:07.361Z,27.20
2017-08-28T07:06:35.640Z,27.30
2017-08-28T07:09:03.928Z,27.30
2017-08-28T07:11:32.171Z,27.50
2017-08-28T07:14:00.410Z,27.50
2017-08-28T07:16:29.575Z,27.50
2017-08-28T07:18:57.817Z,27.80
2017-08-28T07:21:26.051Z,27.90
2017-08-28T07:23:54.332Z,28.30
2017-08-28T07:26:23.825Z,28.70
2017-08-28T07:28:52.084Z,28.40
2017-08-28T07:31:21.144Z,27.70
2017-08-28T07:33:49.459Z,27.40
2017-08-28T07:36:17.700Z,27.30
2017-08-28T07:38:46.100Z,27.20
2017-08-28T07:41:14.414Z,27.40
2017-08-28T07:43:42.652Z,27.70
2017-08-28T07:46:11.565Z,27.90
2017-08-28T07:48:39.838Z,28.10
2017-08-28T07:51:08.083Z,28.30
2017-08-28T07:53:36.373Z,28.50
2017-08-28T07:56:04.640Z,28.60
2017-08-28T07:58:33.652Z,28.90
2017-08-28T08:01:02.161Z,29.40
2017-08-28T08:03:31.519Z,29.70
2017-08-28T08:05:59.762Z,29.30
2017-08-28T08:08:28.189Z,29.20
2017-08-28T08:10:56.435Z,29.20
2017-08-28T08:13:24.699Z,29.50
2017-08-28T08:15:53.150Z,29.50
2017-08-28T08:18:21.400Z,29.80
2017-08-28T08:20:49.664Z,29.90
2017-08-28T08:23:18.195Z,30.20
2017-08-28T08:25:46.417Z,30.10
2017-08-28T08:28:14.748Z,29.70
2017-08-28T08:30:43.049Z,27.50
2017-08-28T08:33:11.281Z,26.20
2017-08-28T08:35:39.533Z,25.50
2017-08-28T08:38:08.284Z,25.80
2017-08-28T08:40:36.517Z,26.30
2017-08-28T08:43:04.773Z,26.80
2017-08-28T08:45:34.009Z,27.10
2017-08-28T08:48:02.283Z,27.10
2017-08-28T08:50:31.155Z,27.70
2017-08-28T08:52:59.659Z,28.40
2017-08-28T08:55:27.950Z,28.80
2017-08-28T08:57:56.212Z,28.70
2017-08-28T09:00:25.426Z,28.10
2017-08-28T09:02:53.685Z,28.00
2017-08-28T09:05:21.930Z,28.40
2017-08-28T09:07:50.387Z,29.20
2017-08-28T09:10:19.336Z,29.90
2017-08-28T09:12:47.606Z,30.50
2017-08-28T09:15:15.887Z,30.90
2017-08-28T09:17:44.148Z,30.90
2017-08-28T09:20:12.405Z,31.40
2017-08-28T09:22:40.957Z,31.80
2017-08-28T09:25:09.195Z,31.40
2017-08-28T09:27:37.454Z,31.30
2017-08-28T09:30:05.721Z,31.30
2017-08-28T09:32:33.980Z,31.10
2017-08-28T09:35:02.228Z,30.20
2017-08-28T09:37:30.980Z,29.70
2017-08-28T09:39:59.269Z,29.90
2017-08-28T09:42:27.500Z,30.20
2017-08-28T09:44:55.764Z,30.70
2017-08-28T09:47:24.291Z,31.00
2017-08-28T09:49:52.607Z,31.20
2017-08-28T09:52:20.908Z,31.60
2017-08-28T09:54:49.557Z,32.00
2017-08-28T09:57:17.813Z,32.60
2017-08-28T09:59:46.205Z,33.10
2017-08-28T10:02:14.435Z,33.50
2017-08-28T10:04:43.095Z,33.90
2017-08-28T10:07:11.847Z,34.30
2017-08-28T10:09:40.074Z,34.80
2017-08-28T10:12:08.316Z,35.20
2017-08-28T10:14:36.577Z,35.20
2017-08-28T10:17:04.838Z,34.80
2017-08-28T10:19:33.849Z,34.40
2017-08-28T10:22:02.191Z,34.70
2017-08-28T10:24:30.431Z,35.00
2017-08-28T10:26:58.185Z,34.30
2017-08-28T10:29:26.442Z,33.80
2017-08-28T10:31:54.680Z,32.90
2017-08-28T10:34:23.761Z,32.40
2017-08-28T10:36:52.941Z,32.10
2017-08-28T10:39:21.212Z,31.90
2017-08-28T10:41:49.512Z,31.90
2017-08-28T10:44:17.802Z,31.90
2017-08-28T10:46:46.066Z,31.80
2017-08-28T10:49:14.309Z,32.20
2017-08-28T10:51:42.762Z,32.60
2017-08-28T10:54:11.014Z,33.20
2017-08-28T10:56:39.478Z,33.80
2017-08-28T10:59:07.786Z,34.20
2017-08-28T11:01:36.100Z,34.20
2017-08-28T11:04:04.346Z,34.70
2017-08-28T11:06:32.634Z,35.00
2017-08-28T11:09:00.905Z,35.20
2017-08-28T11:11:29.259Z,34.90
2017-08-28T11:13:57.563Z,34.90
2017-08-28T11:16:25.798Z,34.50
2017-08-28T11:18:54.637Z,34.50
2017-08-28T11:21:23.065Z,34.10
2017-08-28T11:23:52.090Z,33.50
2017-08-28T11:26:20.314Z,32.90
2017-08-28T11:28:48.582Z,33.00
2017-08-28T11:31:16.952Z,33.30
2017-08-28T11:33:45.205Z,33.30
2017-08-28T11:36:14.246Z,32.80
2017-08-28T11:38:42.520Z,33.10
2017-08-28T11:41:10.810Z,33.50
2017-08-28T11:43:39.924Z,33.30
2017-08-28T11:46:08.640Z,32.90
2017-08-28T11:48:36.877Z,32.90
2017-08-28T11:51:05.270Z,33.10
2017-08-28T11:53:33.516Z,33.20
2017-08-28T11:56:01.819Z,33.40
2017-08-28T11:58:30.093Z,34.00
2017-08-28T12:00:59.248Z,33.70
2017-08-28T12:03:27.529Z,33.40
2017-08-28T12:05:55.977Z,33.00
2017-08-28T12:08:24.222Z,33.50
2017-08-28T12:10:52.470Z,34.10
2017-08-28T12:13:21.573Z,34.20
2017-08-28T12:15:49.817Z,33.70
2017-08-28T12:18:18.118Z,34.10
2017-08-28T12:20:46.414Z,34.60
2017-08-28T12:23:15.534Z,35.10
2017-08-28T12:25:43.844Z,35.40
2017-08-28T12:28:13.113Z,35.70
2017-08-28T12:30:42.178Z,35.20
2017-08-28T12:33:10.641Z,35.30
2017-08-28T12:35:38.929Z,34.80
2017-08-28T12:38:07.170Z,34.10
2017-08-28T12:40:35.476Z,34.30
2017-08-28T12:43:03.790Z,34.70
2017-08-28T12:45:32.040Z,34.90
2017-08-28T12:48:00.516Z,35.20
2017-08-28T12:50:28.788Z,35.20
2017-08-28T12:52:57.041Z,34.70
2017-08-28T12:55:25.289Z,34.20
2017-08-28T12:57:53.566Z,34.20
2017-08-28T13:00:22.122Z,34.70
2017-08-28T13:02:50.586Z,35.20
2017-08-28T13:05:18.868Z,34.80
2017-08-28T13:07:47.106Z,33.60
2017-08-28T13:10:15.638Z,33.00
2017-08-28T13:12:44.366Z,33.00
2017-08-28T13:15:12.617Z,33.10
2017-08-28T13:17:40.901Z,32.90
2017-08-28T13:20:09.300Z,32.00
2017-08-28T13:22:37.575Z,31.10
2017-08-28T13:25:05.907Z,30.30
2017-08-28T13:27:34.155Z,30.00
2017-08-28T13:30:02.454Z,30.50
2017-08-28T13:32:30.916Z,31.20
2017-08-28T13:34:59.193Z,31.80
2017-08-28T13:37:27.444Z,32.30
2017-08-28T13:39:55.671Z,32.00
2017-08-28T13:42:24.189Z,29.70
2017-08-28T13:44:52.968Z,29.00
2017-08-28T13:47:21.221Z,28.80
2017-08-28T13:49:49.488Z,27.70
2017-08-28T13:52:17.731Z,27.70
2017-08-28T13:54:46.028Z,28.10
2017-08-28T13:57:14.344Z,27.70
2017-08-28T13:59:43.748Z,27.90
2017-08-28T14:02:11.990Z,27.20
2017-08-28T14:04:40.258Z,26.50
2017-08-28T14:07:08.568Z,26.30
2017-08-28T14:09:36.834Z,26.80
2017-08-28T14:12:05.144Z,27.70
2017-08-28T14:14:33.413Z,28.50
2017-08-28T14:17:01.974Z,28.70
2017-08-28T14:19:30.520Z,29.30
2017-08-28T14:21:59.487Z,29.80
2017-08-28T14:24:27.731Z,30.20
2017-08-28T14:26:56.025Z,30.60
2017-08-28T14:29:24.278Z,30.60
2017-08-28T14:31:52.538Z,29.30
2017-08-28T14:34:20.811Z,29.10
2017-08-28T14:36:49.122Z,29.20
2017-08-28T14:39:17.365Z,28.70
2017-08-28T14:41:45.773Z,28.10
2017-08-28T14:44:14.261Z,27.00
2017-08-28T14:46:42.506Z,26.80
2017-08-28T14:49:10.776Z,27.20
2017-08-28T14:51:40.005Z,27.20
2017-08-28T14:54:08.267Z,27.10
2017-08-28T14:56:36.755Z,27.30
2017-08-28T14:59:05.015Z,27.90
2017-08-28T15:01:33.307Z,28.40
2017-08-28T15:04:01.670Z,28.90
2017-08-28T15:06:29.927Z,29.20
2017-08-28T15:08:58.183Z,29.60
2017-08-28T15:11:26.454Z,29.70
2017-08-28T15:13:54.695Z,29.90
2017-08-28T15:16:22.958Z,29.70
2017-08-28T15:18:52.184Z,29.50
2017-08-28T15:21:20.459Z,29.30
2017-08-28T15:23:48.893Z,29.00
2017-08-28T15:26:17.272Z,27.80
2017-08-28T15:28:45.602Z,27.30
2017-08-28T15:31:13.828Z,27.10
2017-08-28T15:33:42.098Z,27.20
2017-08-28T15:36:10.349Z,27.40
2017-08-28T15:38:38.659Z,27.30
2017-08-28T15:41:07.381Z,27.40
2017-08-28T15:43:36.038Z,27.20
2017-08-28T15:46:04.281Z,27.30
2017-08-28T15:48:32.709Z,27.60
2017-08-28T15:51:01.890Z,27.80
2017-08-28T15:53:30.130Z,28.00
2017-08-28T15:55:58.441Z,28.00
2017-08-28T15:58:26.913Z,27.90
2017-08-28T16:00:55.607Z,28.00
2017-08-28T16:03:24.208Z,28.10
2017-08-28T16:05:52.660Z,28.20
2017-08-28T16:08:20.887Z,27.70
2017-08-28T16:10:49.177Z,27.40
2017-08-28T16:13:17.438Z,27.50
2017-08-28T16:15:45.673Z,27.60
2017-08-28T16:18:14.080Z,27.80
2017-08-28T16:20:42.374Z,27.80
2017-08-28T16:23:10.674Z,27.90
2017-08-28T16:25:39.037Z,28.00
2017-08-28T16:28:07.261Z,28.00
2017-08-28T16:30:36.127Z,27.90
2017-08-28T16:33:04.423Z,27.70
2017-08-28T16:35:32.884Z,27.50
2017-08-28T16:38:01.231Z,27.50
2017-08-28T16:40:29.733Z,27.30
2017-08-28T16:42:57.979Z,27.20
2017-08-28T16:45:26.332Z,27.30
2017-08-28T16:47:54.729Z,27.20
2017-08-28T16:50:23.016Z,26.90
2017-08-28T16:52:51.419Z,26.80
2017-08-28T16:55:20.237Z,26.60
2017-08-28T16:57:48.505Z,26.50
2017-08-28T17:00:16.987Z,26.60
2017-08-28T17:02:45.259Z,26.60
2017-08-28T17:05:13.592Z,26.60
2017-08-28T17:07:41.856Z,26.50
2017-08-28T17:10:10.500Z,26.50
2017-08-28T17:12:39.006Z,26.40
2017-08-28T17:15:07.260Z,26.30
2017-08-28T17:17:35.832Z,26.40
2017-08-28T17:20:04.215Z,26.30
2017-08-28T17:22:38.444Z,26.50
2017-08-28T17:25:06.695Z,26.60
2017-08-28T17:27:34.959Z,26.60
2017-08-28T17:30:03.405Z,26.60
2017-08-28T17:32:31.648Z,26.70
2017-08-28T17:34:59.896Z,26.80
2017-08-28T17:37:28.170Z,26.80
2017-08-28T17:39:56.415Z,26.80
2017-08-28T17:42:24.677Z,26.80
2017-08-28T17:44:53.435Z,26.70
2017-08-28T17:47:21.680Z,26.60
2017-08-28T17:49:49.930Z,26.40
2017-08-28T17:52:18.217Z,26.20
2017-08-28T17:54:46.716Z,26.10
2017-08-28T17:57:15.013Z,25.90
2017-08-28T17:59:43.434Z,25.70
2017-08-28T18:02:11.692Z,25.60
2017-08-28T18:04:40.263Z,25.60
2017-08-28T18:07:08.796Z,25.60
2017-08-28T18:09:37.046Z,25.60
2017-08-28T18:12:06.830Z,25.50
2017-08-28T18:14:36.597Z,25.50
2017-08-28T18:17:05.259Z,25.60
2017-08-28T18:19:33.498Z,25.60
2017-08-28T18:22:01.774Z,25.50
2017-08-28T18:24:30.028Z,25.40
2017-08-28T18:26:58.422Z,25.30
2017-08-28T18:29:26.698Z,25.20
2017-08-28T18:31:54.936Z,25.10
2017-08-28T18:34:23.220Z,24.90
2017-08-28T18:36:51.489Z,24.80
2017-08-28T18:39:20.223Z,24.70
2017-08-28T18:41:48.460Z,24.50
2017-08-28T18:44:16.761Z,24.50
2017-08-28T18:46:45.078Z,24.30
2017-08-28T18:49:13.419Z,24.30
2017-08-28T18:51:47.700Z,24.20
2017-08-28T18:54:16.626Z,24.20
2017-08-28T18:56:45.968Z,24.20
2017-08-28T18:59:14.276Z,24.10
2017-08-28T19:01:42.552Z,24.00
2017-08-28T19:04:11.181Z,24.10
2017-08-28T19:06:39.522Z,24.40
2017-08-28T19:09:07.773Z,24.60
2017-08-28T19:11:36.685Z,24.70
2017-08-28T19:14:05.090Z,24.60
2017-08-28T19:16:33.379Z,24.40
2017-08-28T19:19:01.680Z,24.30
2017-08-28T19:21:29.926Z,24.20
2017-08-28T19:23:58.190Z,24.30
2017-08-28T19:26:26.458Z,24.30
2017-08-28T19:28:54.740Z,24.30
2017-08-28T19:31:23.097Z,24.40
2017-08-28T19:33:55.160Z,24.40
2017-08-28T19:36:23.439Z,24.50
2017-08-28T19:38:52.157Z,24.60
2017-08-28T19:41:20.577Z,24.70
2017-08-28T19:43:49.684Z,24.80
2017-08-28T19:46:18.003Z,24.70
2017-08-28T19:48:46.295Z,24.20
2017-08-28T19:51:15.025Z,23.70
2017-08-28T19:53:43.582Z,23.40
2017-08-28T19:56:11.876Z,23.10
2017-08-28T19:58:40.349Z,22.60
2017-08-28T20:01:08.599Z,22.40
2017-08-28T20:03:36.909Z,22.40
2017-08-28T20:06:06.714Z,22.50
2017-08-28T20:08:34.969Z,22.60
2017-08-28T20:11:03.275Z,22.60
2017-08-28T20:13:31.505Z,22.60
2017-08-28T20:15:59.881Z,22.60
2017-08-28T20:18:28.364Z,22.60
2017-08-28T20:20:56.617Z,22.40
2017-08-28T20:23:25.635Z,22.50
2017-08-28T20:25:53.942Z,22.30
2017-08-28T20:28:22.197Z,22.20
2017-08-28T20:30:51.183Z,22.30
2017-08-28T20:33:19.505Z,22.30
2017-08-28T20:35:47.982Z,22.40
2017-08-28T20:38:16.231Z,22.50
2017-08-28T20:40:44.536Z,22.60
2017-08-28T20:43:13.016Z,22.40
2017-08-28T20:45:41.272Z,22.10
2017-08-28T20:48:09.708Z,21.90
2017-08-28T20:50:37.981Z,21.80
2017-08-28T20:53:06.250Z,21.70
2017-08-28T20:55:34.710Z,21.60
2017-08-28T20:58:02.978Z,21.60
2017-08-28T21:00:31.266Z,21.60
2017-08-28T21:02:59.593Z,21.50
2017-08-28T21:05:28.777Z,21.40
2017-08-28T21:07:57.105Z,21.50
2017-08-28T21:10:25.765Z,21.40
2017-08-28T21:12:54.120Z,21.30
2017-08-28T21:15:22.366Z,21.30
2017-08-28T21:17:50.648Z,21.30
2017-08-28T21:20:20.230Z,21.30
2017-08-28T21:22:48.496Z,21.30
2017-08-28T21:25:16.773Z,21.30
2017-08-28T21:27:45.023Z,21.20
2017-08-28T21:30:13.316Z,21.10
2017-08-28T21:32:41.591Z,21.00
2017-08-28T21:35:09.846Z,20.90
2017-08-28T21:37:38.107Z,20.80
2017-08-28T21:40:06.433Z,20.60
2017-08-28T21:42:34.696Z,20.50
2017-08-28T21:45:03.145Z,20.40
2017-08-28T21:47:31.731Z,20.30
2017-08-28T21:50:00.010Z,20.20
2017-08-28T21:52:28.269Z,20.20
2017-08-28T21:54:56.576Z,20.00
2017-08-28T21:57:24.876Z,20.00
2017-08-28T21:59:53.141Z,20.00
2017-08-28T22:02:22.895Z,19.90
2017-08-28T22:04:51.557Z,19.80
2017-08-28T22:07:19.852Z,19.60
2017-08-28T22:09:48.442Z,19.50
2017-08-28T22:12:17.377Z,19.30
2017-08-28T22:14:45.898Z,19.20
2017-08-28T22:17:14.730Z,19.10
2017-08-28T22:19:43.424Z,19.00
2017-08-28T22:22:12.071Z,19.00
2017-08-28T22:24:40.956Z,18.90
2017-08-28T22:27:09.349Z,18.90
2017-08-28T22:29:38.060Z,19.10
2017-08-28T22:32:06.773Z,19.20
2017-08-28T22:34:35.552Z,19.30
2017-08-28T22:37:04.678Z,19.20
2017-08-28T22:39:33.492Z,19.20
2017-08-28T22:42:01.859Z,19.20
2017-08-28T22:44:30.137Z,19.20
2017-08-28T22:46:58.801Z,19.10
2017-08-28T22:49:27.208Z,19.10
2017-08-28T22:51:55.990Z,19.30
2017-08-28T22:54:24.571Z,19.40
2017-08-28T22:56:53.622Z,19.40
2017-08-28T22:59:22.526Z,19.50
2017-08-28T23:01:51.307Z,19.60
2017-08-28T23:04:20.081Z,19.60
2017-08-28T23:06:49.528Z,19.60
2017-08-28T23:09:18.269Z,19.60
2017-08-28T23:11:47.059Z,19.60
2017-08-28T23:14:15.865Z,19.50
2017-08-28T23:16:44.654Z,19.50
2017-08-28T23:19:13.339Z,19.40
2017-08-28T23:21:41.785Z,19.50
2017-08-28T23:24:10.236Z,19.40
2017-08-28T23:26:38.491Z,19.40
2017-08-28T23:29:06.895Z,19.40
2017-08-28T23:31:35.256Z,19.50
2017-08-28T23:34:03.520Z,19.40
2017-08-28T23:36:31.826Z,19.40
2017-08-28T23:39:00.095Z,19.40
2017-08-28T23:41:28.472Z,19.40
2017-08-28T23:43:56.708Z,19.30
2017-08-28T23:46:25.658Z,19.30
2017-08-28T23:48:54.595Z,19.20
2017-08-28T23:51:23.734Z,19.20
2017-08-28T23:53:52.172Z,19.40
2017-08-28T23:56:20.422Z,19.40
2017-08-28T23:58:48.669Z,19.50
